Time;durP1;ratioP1;P1;durP2;ratioP2;P2;SDS_P1;SDS_P2;PMS_P1;PMS_P2;Temp;Humidity;BMP_temperature;BMP_pressure;BME280_temperature;BME280_humidity;BME280_pressure;Samples;Min_cycle;Max_cycle;Signal;HPM_P1;HPM_P2
2021/10/15 00:01:14;;;;;;;;;;;;;;;9.13;48.63;95797.94;5029211;28;20435;-64
2021/10/15 00:03:40;;;;;;;;;;;;;;;9.19;48.53;95794.63;5029193;28;20283;-64
2021/10/15 00:06:05;;;;;;;;;;;;;;;8.98;48.57;95787.13;5029330;28;19960;-64
2021/10/15 00:08:30;;;;;;;;;;;;;;;8.85;49.30;95787.56;5028680;28;19925;-64
2021/10/15 00:10:55;;;;;;;;;;;;;;;8.94;48.44;95799.88;5028867;28;19917;-65
2021/10/15 00:13:21;;;;;;;;;;;;;;;8.91;48.57;95789.59;5028731;28;19956;-64
2021/10/15 00:15:46;;;;;;;;;;;;;;;8.78;48.88;95782.09;5028777;28;19925;-64
2021/10/15 00:18:11;;;;;;;;;;;;;;;8.73;48.62;95779.06;5027760;28;20334;-65
2021/10/15 00:20:36;;;;;;;;;;;;;;;8.57;49.38;95781.53;5028609;28;19917;-64
2021/10/15 00:23:02;;;;;;;;;;;;;;;8.71;49.01;95781.06;5034231;28;19971;-64
2021/10/15 00:25:27;;;;;;;;;;;;;;;8.40;49.14;95787.78;5028718;28;19921;-65
2021/10/15 00:27:52;;;;;;;;;;;;;;;7.52;51.71;95783.28;5028357;28;20413;-65
2021/10/15 00:30:18;;;;;;;;;;;;;;;7.01;53.63;95786.50;5028858;28;19921;-64
2021/10/15 00:32:43;;;;;;;;;;;;;;;7.71;51.08;95783.25;5028683;28;19917;-64
2021/10/15 00:35:08;;;;;;;;;;;;;;;8.35;49.93;95771.50;5028783;28;20370;-64
2021/10/15 00:37:33;;;;;;;;;;;;;;;8.61;49.21;95776.75;5028423;28;20232;-64
2021/10/15 00:39:59;;;;;;;;;;;;;;;8.69;49.10;95767.97;5028156;28;19917;-65
2021/10/15 00:42:24;;;;;;;;;;;;;;;8.70;49.21;95769.63;5028848;28;19971;-65
2021/10/15 00:44:50;;;;;;;;;;;;;;;8.55;49.23;95772.91;5028252;28;19921;-65
2021/10/15 00:47:15;;;;;;;;;;;;;;;8.60;49.67;95771.59;5028892;28;20394;-65
2021/10/15 00:49:40;;;;;;;;;;;;;;;8.59;48.89;95769.91;5028087;28;19975;-65
2021/10/15 00:52:08;;;;;;;;;;;;;;;8.69;48.75;95758.19;5028127;28;19921;-64
2021/10/15 00:54:33;;;;;;;;;;;;;;;8.61;48.81;95755.53;5026841;28;19920;-65
2021/10/15 00:56:58;;;;;;;;;;;;;;;8.19;49.79;95757.19;5028268;28;20376;-65
2021/10/15 00:59:24;;;;;;;;;;;;;;;7.39;51.76;95756.38;5028464;28;19948;-65
2021/10/15 01:01:49;;;;;;;;;;;;;;;6.97;52.89;95758.69;5028038;28;19924;-64
2021/10/15 01:04:14;;;;;;;;;;;;;;;6.61;53.49;95758.69;5026754;28;19924;-64
2021/10/15 01:06:40;;;;;;;;;;;;;;;5.81;55.96;95757.34;5028298;28;19920;-65
2021/10/15 01:09:05;;;;;;;;;;;;;;;5.86;55.61;95758.59;5026425;28;19925;-65
2021/10/15 01:11:30;;;;;;;;;;;;;;;5.97;55.55;95747.03;5027980;28;19927;-65
2021/10/15 01:13:56;;;;;;;;;;;;;;;5.87;55.88;95748.84;5027529;28;19917;-64
2021/10/15 01:16:28;;;;;;;;;;;;;;;5.52;56.90;95747.72;5027091;28;20007;-65
2021/10/15 01:18:55;;;;;;;;;;;;;;;5.12;57.77;95747.78;5028154;28;20362;-65
2021/10/15 01:21:20;;;;;;;;;;;;;;;5.12;57.88;95739.88;5032103;28;19917;-65
2021/10/15 01:23:45;;;;;;;;;;;;;;;5.35;56.73;95734.28;5014522;28;19932;-65
2021/10/15 01:26:10;;;;;;;;;;;;;;;5.07;58.13;95740.28;5027896;28;19925;-65
2021/10/15 01:28:36;;;;;;;;;;;;;;;5.40;56.62;95726.75;5027561;28;20652;-64
2021/10/15 01:31:01;;;;;;;;;;;;;;;5.77;55.34;95729.56;5027957;28;20068;-64
2021/10/15 01:33:26;;;;;;;;;;;;;;;5.69;55.32;95728.50;5027465;28;19967;-65
2021/10/15 01:35:52;;;;;;;;;;;;;;;5.72;54.60;95720.25;5027622;28;20023;-65
2021/10/15 01:38:17;;;;;;;;;;;;;;;5.32;56.22;95716.06;5027672;28;20373;-65
2021/10/15 01:40:42;;;;;;;;;;;;;;;5.35;56.30;95723.72;5027577;28;19921;-65
2021/10/15 01:43:08;;;;;;;;;;;;;;;5.16;56.84;95720.13;5027637;28;19925;-65
2021/10/15 01:45:33;;;;;;;;;;;;;;;4.57;57.97;95717.50;5027437;28;19917;-65
2021/10/15 01:47:59;;;;;;;;;;;;;;;5.28;56.66;95715.53;5025774;28;19931;-65
2021/10/15 01:50:25;;;;;;;;;;;;;;;5.38;55.25;95710.25;5026240;28;19972;-65
2021/10/15 01:52:50;;;;;;;;;;;;;;;5.34;55.54;95707.03;5026513;28;19953;-65
2021/10/15 01:55:15;;;;;;;;;;;;;;;4.75;58.08;95712.34;5026047;28;19963;-65
2021/10/15 01:57:41;;;;;;;;;;;;;;;4.76;57.60;95697.38;5027127;28;19917;-65
2021/10/15 02:00:07;;;;;;;;;;;;;;;5.56;54.98;95701.56;5026943;28;20246;-65
2021/10/15 02:02:32;;;;;;;;;;;;;;;5.70;54.94;95697.59;5025628;28;19956;-65
2021/10/15 02:04:57;;;;;;;;;;;;;;;5.47;54.92;95698.81;5026948;28;20170;-65
2021/10/15 02:07:22;;;;;;;;;;;;;;;5.63;54.92;95701.81;5026037;28;19917;-65
2021/10/15 02:09:48;;;;;;;;;;;;;;;5.22;55.44;95694.97;5026826;28;19925;-65
2021/10/15 02:12:13;;;;;;;;;;;;;;;5.33;54.54;95694.81;5026497;28;19917;-65
2021/10/15 02:14:38;;;;;;;;;;;;;;;5.86;52.88;95691.72;5026357;28;20378;-65
2021/10/15 02:17:03;;;;;;;;;;;;;;;5.81;52.75;95691.28;5026460;28;19926;-65
2021/10/15 02:19:29;;;;;;;;;;;;;;;5.71;53.37;95688.69;5027049;28;19914;-65
2021/10/15 02:21:54;;;;;;;;;;;;;;;5.31;54.12;95682.75;5022269;28;19918;-65
2021/10/15 02:24:19;;;;;;;;;;;;;;;5.37;54.28;95686.63;5026935;28;19927;-65
2021/10/15 02:26:44;;;;;;;;;;;;;;;5.57;53.83;95684.72;5026892;28;19921;-65
2021/10/15 02:29:10;;;;;;;;;;;;;;;5.51;53.52;95680.03;5026447;28;20071;-65
2021/10/15 02:31:35;;;;;;;;;;;;;;;5.06;54.97;95677.09;5027133;28;19917;-65
2021/10/15 02:34:00;;;;;;;;;;;;;;;4.94;55.11;95679.03;5026894;28;19925;-65
2021/10/15 02:36:26;;;;;;;;;;;;;;;5.55;53.55;95663.72;5026566;28;19928;-65
2021/10/15 02:38:51;;;;;;;;;;;;;;;5.47;53.15;95664.47;5026960;28;19921;-65
2021/10/15 02:41:16;;;;;;;;;;;;;;;5.70;52.91;95666.75;5026344;28;19917;-65
2021/10/15 02:43:42;;;;;;;;;;;;;;;5.61;53.57;95657.03;5026318;28;20326;-65
2021/10/15 02:46:07;;;;;;;;;;;;;;;5.71;53.02;95649.91;5026721;28;19921;-66
2021/10/15 02:48:32;;;;;;;;;;;;;;;5.91;52.32;95652.47;5025738;28;20040;-65
2021/10/15 02:50:57;;;;;;;;;;;;;;;5.68;53.02;95650.19;5024085;28;20401;-65
2021/10/15 02:53:23;;;;;;;;;;;;;;;5.67;52.98;95645.91;5026456;28;19917;-65
2021/10/15 02:55:48;;;;;;;;;;;;;;;5.60;52.53;95639.53;5026298;28;19963;-65
2021/10/15 02:58:13;;;;;;;;;;;;;;;5.47;53.33;95635.44;5026674;28;19967;-65
2021/10/15 03:00:38;;;;;;;;;;;;;;;5.79;52.06;95637.78;5026392;28;20237;-65
2021/10/15 03:03:03;;;;;;;;;;;;;;;5.83;52.69;95632.06;5026613;28;19917;-65
2021/10/15 03:05:29;;;;;;;;;;;;;;;5.89;52.13;95628.00;5026407;28;20506;-65
2021/10/15 03:07:54;;;;;;;;;;;;;;;5.86;52.30;95636.22;5026275;28;19933;-65
2021/10/15 03:10:19;;;;;;;;;;;;;;;5.92;51.70;95635.63;5026552;28;19952;-65
2021/10/15 03:12:45;;;;;;;;;;;;;;;5.76;52.49;95633.63;5026150;28;19925;-65
2021/10/15 03:15:10;;;;;;;;;;;;;;;5.90;52.02;95637.59;5026682;28;20027;-65
2021/10/15 03:17:35;;;;;;;;;;;;;;;5.83;51.32;95632.06;5025549;28;20333;-65
2021/10/15 03:20:00;;;;;;;;;;;;;;;5.28;53.82;95632.84;5026359;28;19917;-65
2021/10/15 03:22:26;;;;;;;;;;;;;;;4.50;56.26;95632.00;5026541;28;19917;-65
2021/10/15 03:24:51;;;;;;;;;;;;;;;5.03;55.08;95624.56;5026258;28;20032;-65
2021/10/15 03:27:16;;;;;;;;;;;;;;;5.28;54.39;95619.66;5027255;28;20006;-65
2021/10/15 03:29:42;;;;;;;;;;;;;;;5.42;53.54;95621.00;5029499;28;20023;-65
2021/10/15 03:32:07;;;;;;;;;;;;;;;5.25;54.63;95625.22;5029695;28;20283;-65
2021/10/15 03:34:32;;;;;;;;;;;;;;;5.13;54.87;95614.84;5029967;28;19921;-65
2021/10/15 03:36:57;;;;;;;;;;;;;;;5.45;53.58;95615.44;5029660;28;19925;-65
2021/10/15 03:39:23;;;;;;;;;;;;;;;5.42;53.40;95618.34;5029492;28;20406;-65
2021/10/15 03:41:48;;;;;;;;;;;;;;;5.33;53.81;95609.50;5029505;28;20012;-66
2021/10/15 03:44:13;;;;;;;;;;;;;;;5.29;54.08;95611.59;5029185;28;19921;-65
2021/10/15 03:46:38;;;;;;;;;;;;;;;5.41;53.05;95614.06;5030047;28;19952;-65
2021/10/15 03:49:04;;;;;;;;;;;;;;;5.81;52.17;95614.69;5027818;28;19922;-65
2021/10/15 03:51:29;;;;;;;;;;;;;;;5.74;51.83;95615.28;5029737;28;20286;-65
2021/10/15 03:53:54;;;;;;;;;;;;;;;5.78;52.08;95615.00;5029041;28;19944;-65
2021/10/15 03:56:19;;;;;;;;;;;;;;;5.74;52.40;95614.44;5029713;28;19921;-65
2021/10/15 03:58:45;;;;;;;;;;;;;;;5.40;52.87;95613.22;5029442;28;19925;-65
2021/10/15 04:01:10;;;;;;;;;;;;;;;5.55;52.66;95613.56;5028999;28;19928;-65
2021/10/15 04:03:35;;;;;;;;;;;;;;;5.42;53.52;95613.91;5029153;28;19921;-65
2021/10/15 04:06:00;;;;;;;;;;;;;;;5.47;52.79;95609.03;5029429;28;19945;-66
2021/10/15 04:08:26;;;;;;;;;;;;;;;5.27;53.19;95605.63;5029110;28;20402;-65
2021/10/15 04:10:51;;;;;;;;;;;;;;;5.30;53.71;95602.69;5029325;28;19925;-65
2021/10/15 04:13:16;;;;;;;;;;;;;;;5.30;52.90;95604.50;5028682;28;20030;-65
2021/10/15 04:15:42;;;;;;;;;;;;;;;4.64;55.57;95599.94;5029205;28;19928;-65
2021/10/15 04:18:07;;;;;;;;;;;;;;;4.71;55.15;95603.69;5028977;28;19929;-65
2021/10/15 04:20:34;;;;;;;;;;;;;;;4.86;54.69;95599.75;5027954;28;20209;-65
2021/10/15 04:22:59;;;;;;;;;;;;;;;4.68;55.52;95603.09;5029037;28;19921;-65
2021/10/15 04:25:25;;;;;;;;;;;;;;;5.27;53.42;95595.06;5028872;28;20355;-65
2021/10/15 04:27:50;;;;;;;;;;;;;;;5.28;52.94;95591.47;5028551;28;19921;-65
2021/10/15 04:30:15;;;;;;;;;;;;;;;5.41;52.88;95591.09;5029042;28;19917;-66
2021/10/15 04:32:40;;;;;;;;;;;;;;;5.40;52.60;95594.72;5028509;28;19917;-65
2021/10/15 04:35:06;;;;;;;;;;;;;;;5.56;52.43;95594.13;5029187;28;19924;-65
2021/10/15 04:37:31;;;;;;;;;;;;;;;5.53;52.43;95585.63;5028515;28;19928;-65
2021/10/15 04:39:56;;;;;;;;;;;;;;;5.50;51.91;95589.41;5028388;28;20285;-65
2021/10/15 04:42:22;;;;;;;;;;;;;;;5.59;51.66;95592.97;5028558;28;19913;-65
2021/10/15 04:44:47;;;;;;;;;;;;;;;5.57;52.48;95581.72;5028229;28;19974;-65
2021/10/15 04:47:12;;;;;;;;;;;;;;;5.51;52.51;95574.41;5028440;28;19917;-66
2021/10/15 04:49:37;;;;;;;;;;;;;;;5.38;52.86;95577.38;5025960;28;20383;-65
2021/10/15 04:52:03;;;;;;;;;;;;;;;5.27;53.24;95578.41;5027984;28;19986;-65
2021/10/15 04:54:28;;;;;;;;;;;;;;;4.66;55.76;95573.41;5028038;28;19978;-65
2021/10/15 04:56:53;;;;;;;;;;;;;;;5.00;54.71;95572.91;5027925;28;19968;-65
2021/10/15 04:59:19;;;;;;;;;;;;;;;5.12;53.65;95563.03;5028211;28;19925;-65
2021/10/15 05:01:44;;;;;;;;;;;;;;;4.97;54.39;95560.00;5028211;28;19917;-65
2021/10/15 05:04:09;;;;;;;;;;;;;;;5.41;53.21;95556.78;5027576;28;20050;-65
2021/10/15 05:06:35;;;;;;;;;;;;;;;5.27;53.57;95559.94;5028555;28;19960;-66
2021/10/15 05:11:28;;;;;;;;;;;;;;;5.39;53.19;95555.28;5028180;28;19923;-65
2021/10/15 05:13:54;;;;;;;;;;;;;;;5.43;52.91;95552.19;5027449;28;20333;-65
2021/10/15 05:16:19;;;;;;;;;;;;;;;5.20;53.86;95549.94;5026618;28;20313;-65
2021/10/15 05:18:44;;;;;;;;;;;;;;;5.10;53.94;95549.13;5027893;28;19927;-65
2021/10/15 05:21:09;;;;;;;;;;;;;;;4.95;54.74;95541.69;5027743;28;19970;-65
2021/10/15 05:23:35;;;;;;;;;;;;;;;5.02;54.35;95543.72;5027943;28;19924;-65
2021/10/15 05:26:00;;;;;;;;;;;;;;;5.51;53.23;95543.53;5026861;28;19925;-65
2021/10/15 05:28:25;;;;;;;;;;;;;;;5.63;52.45;95538.88;5026506;28;19925;-65
2021/10/15 05:30:50;;;;;;;;;;;;;;;5.38;53.28;95535.13;5026778;28;19917;-65
2021/10/15 05:33:16;;;;;;;;;;;;;;;5.48;53.11;95534.09;5026988;28;19917;-65
2021/10/15 05:35:41;;;;;;;;;;;;;;;5.17;54.25;95528.31;5026575;28;20385;-65
2021/10/15 05:38:07;;;;;;;;;;;;;;;5.33;52.92;95530.28;5027270;28;20008;-65
2021/10/15 05:40:32;;;;;;;;;;;;;;;5.43;52.74;95523.16;5025073;28;20394;-65
2021/10/15 05:42:57;;;;;;;;;;;;;;;5.69;52.47;95521.59;5027122;28;20015;-66
2021/10/15 05:45:25;;;;;;;;;;;;;;;5.73;52.31;95525.59;5014736;28;19930;-65
2021/10/15 05:47:51;;;;;;;;;;;;;;;5.69;51.76;95527.72;5014035;28;19967;-65
2021/10/15 05:50:16;;;;;;;;;;;;;;;5.55;52.41;95536.97;5017651;28;20418;-65
2021/10/15 05:52:44;;;;;;;;;;;;;;;4.91;54.76;95532.41;5022210;28;19925;-65
2021/10/15 06:00:28;;;;;;;;;;;;;;;3.58;59.87;95535.56;5020541;28;19927;-65
2021/10/15 06:02:53;;;;;;;;;;;;;;;4.53;56.83;95523.63;5022312;28;20277;-65
2021/10/15 06:16:07;;;;;;;;;;;;;;;5.66;52.92;95517.47;5021085;28;19932;-65
2021/10/15 06:18:38;;;;;;;;;;;;;;;5.21;56.88;95517.28;5021997;28;19997;-65
2021/10/15 06:21:03;;;;;;;;;;;;;;;5.42;54.58;95521.50;5020999;28;19952;-65
2021/10/15 06:23:30;;;;;;;;;;;;;;;5.17;55.40;95509.81;5021686;28;20341;-66
2021/10/15 06:25:55;;;;;;;;;;;;;;;5.64;53.41;95510.66;5021270;28;19967;-65
2021/10/15 06:28:21;;;;;;;;;;;;;;;5.93;52.47;95509.63;5019711;28;20020;-65
2021/10/15 06:30:46;;;;;;;;;;;;;;;5.74;52.95;95511.41;5021510;28;19921;-65
2021/10/15 06:33:12;;;;;;;;;;;;;;;5.32;54.48;95503.06;5014588;28;19929;-65
2021/10/15 06:35:37;;;;;;;;;;;;;;;5.93;52.63;95507.81;5022186;28;19921;-65
2021/10/15 06:38:06;;;;;;;;;;;;;;;5.90;52.59;95497.53;5021767;28;19928;-65
2021/10/15 06:40:31;;;;;;;;;;;;;;;5.36;53.77;95508.88;5021588;28;19921;-65
2021/10/15 06:42:56;;;;;;;;;;;;;;;5.60;53.66;95512.75;5021124;28;19921;-65
2021/10/15 06:45:22;;;;;;;;;;;;;;;5.74;54.02;95509.63;5021489;28;19921;-65
2021/10/15 06:47:47;;;;;;;;;;;;;;;5.68;53.59;95510.19;5019895;28;19929;-65
2021/10/15 06:50:12;;;;;;;;;;;;;;;5.77;53.27;95513.75;5012038;28;19971;-65
2021/10/15 06:52:46;;;;;;;;;;;;;;;5.78;53.41;95518.06;5021036;28;19927;-65
2021/10/15 06:55:12;;;;;;;;;;;;;;;5.11;54.91;95524.44;5016190;28;19925;-66
2021/10/15 06:57:37;;;;;;;;;;;;;;;6.03;53.02;95523.59;5021242;28;19928;-66
2021/10/15 07:00:03;;;;;;;;;;;;;;;5.73;53.90;95523.81;5021277;28;19927;-67
2021/10/15 07:02:28;;;;;;;;;;;;;;;5.77;54.15;95526.13;5022894;28;19979;-65
2021/10/15 07:04:53;;;;;;;;;;;;;;;5.96;53.32;95530.47;5024975;28;19952;-65
2021/10/15 07:07:19;;;;;;;;;;;;;;;5.87;53.79;95529.53;5025745;28;19931;-65
2021/10/15 07:09:44;;;;;;;;;;;;;;;6.49;51.89;95526.13;5025505;28;20373;-69
2021/10/15 07:12:09;;;;;;;;;;;;;;;6.32;52.58;95521.69;5025467;28;20008;-65
2021/10/15 07:14:34;;;;;;;;;;;;;;;5.67;55.01;95532.31;5025790;28;20361;-65
2021/10/15 07:17:00;;;;;;;;;;;;;;;6.41;52.36;95514.63;5025351;28;19933;-65
2021/10/15 07:19:25;;;;;;;;;;;;;;;6.54;52.44;95514.25;5020695;28;19932;-65
2021/10/15 07:21:50;;;;;;;;;;;;;;;6.52;52.15;95521.53;5025382;28;20463;-65
2021/10/15 07:24:15;;;;;;;;;;;;;;;6.32;54.25;95517.19;5024494;28;19929;-66
2021/10/15 07:26:41;;;;;;;;;;;;;;;6.29;52.92;95522.78;5021729;28;19925;-65
2021/10/15 07:29:06;;;;;;;;;;;;;;;6.69;51.93;95527.72;5009601;28;19929;-66
2021/10/15 07:31:31;;;;;;;;;;;;;;;6.30;52.71;95521.00;5025386;28;20237;-65
2021/10/15 07:33:56;;;;;;;;;;;;;;;5.67;54.30;95526.19;5023660;28;20313;-65
2021/10/15 07:36:22;;;;;;;;;;;;;;;5.07;55.99;95526.50;5025123;28;19921;-65
2021/10/15 07:38:47;;;;;;;;;;;;;;;5.38;55.45;95535.97;5025612;28;19999;-65
2021/10/15 07:41:12;;;;;;;;;;;;;;;5.80;54.25;95525.84;5024066;28;19932;-65
2021/10/15 07:43:37;;;;;;;;;;;;;;;6.18;53.23;95523.88;5023063;28;20171;-65
2021/10/15 07:46:03;;;;;;;;;;;;;;;6.07;53.96;95524.94;5025068;28;20271;-65
2021/10/15 07:48:28;;;;;;;;;;;;;;;6.35;53.47;95527.47;5025054;28;20026;-65
2021/10/15 07:50:54;;;;;;;;;;;;;;;6.13;54.15;95519.03;5023823;28;19924;-65
2021/10/15 07:53:19;;;;;;;;;;;;;;;6.37;53.34;95514.91;5024113;28;20263;-65
2021/10/15 07:55:44;;;;;;;;;;;;;;;6.04;53.89;95519.13;5016409;28;19921;-65
2021/10/15 07:58:10;;;;;;;;;;;;;;;6.10;54.37;95519.34;5025093;28;19933;-66
2021/10/15 08:00:36;;;;;;;;;;;;;;;6.30;54.05;95527.13;5025008;28;19922;-65
2021/10/15 08:03:01;;;;;;;;;;;;;;;6.11;54.38;95530.75;5024351;28;19979;-65
2021/10/15 08:05:26;;;;;;;;;;;;;;;6.10;54.36;95527.28;5016983;28;19960;-65
2021/10/15 08:07:52;;;;;;;;;;;;;;;6.30;53.95;95531.56;5022133;28;20009;-65
2021/10/15 08:10:17;;;;;;;;;;;;;;;6.15;54.34;95528.66;5024878;28;19932;-65
2021/10/15 08:12:42;;;;;;;;;;;;;;;5.75;55.48;95534.22;5024582;28;20007;-65
2021/10/15 08:15:08;;;;;;;;;;;;;;;6.01;55.30;95528.19;5024633;28;19916;-65
2021/10/15 08:17:33;;;;;;;;;;;;;;;5.30;56.86;95525.28;5024235;28;20394;-65
2021/10/15 08:19:58;;;;;;;;;;;;;;;5.57;56.27;95529.75;5017084;28;19937;-65
2021/10/15 08:22:24;;;;;;;;;;;;;;;5.95;55.58;95542.81;5024701;28;19935;-65
2021/10/15 08:24:49;;;;;;;;;;;;;;;6.22;55.23;95530.50;5024051;28;20436;-65
2021/10/15 08:27:14;;;;;;;;;;;;;;;5.89;56.17;95538.16;5024369;28;19968;-65
2021/10/15 08:29:40;;;;;;;;;;;;;;;6.17;55.83;95540.72;5023923;28;19929;-65
2021/10/15 08:32:06;;;;;;;;;;;;;;;5.99;56.48;95538.91;5024250;28;20302;-65
2021/10/15 08:34:31;;;;;;;;;;;;;;;6.31;55.94;95535.88;5025157;28;20015;-65
2021/10/15 08:36:57;;;;;;;;;;;;;;;7.02;53.70;95541.16;5024383;28;20012;-65
2021/10/15 08:39:26;;;;;;;;;;;;;;;6.24;55.22;95549.72;5024373;28;19921;-65
2021/10/15 08:41:51;;;;;;;;;;;;;;;6.69;55.45;95549.72;5024300;28;20464;-65
2021/10/15 08:44:17;;;;;;;;;;;;;;;7.27;53.26;95542.13;5024549;28;19921;-65
2021/10/15 08:46:42;;;;;;;;;;;;;;;7.41;53.10;95542.50;5024858;28;19913;-67
2021/10/15 08:49:07;;;;;;;;;;;;;;;7.59;52.41;95541.56;5024028;28;19926;-65
2021/10/15 08:51:34;;;;;;;;;;;;;;;7.92;51.71;95541.66;5023946;28;19917;-65
2021/10/15 08:53:59;;;;;;;;;;;;;;;7.84;51.93;95531.03;5024080;28;19921;-66
2021/10/15 08:56:27;;;;;;;;;;;;;;;7.15;54.03;95546.03;5023236;28;19932;-66
2021/10/15 08:58:59;;;;;;;;;;;;;;;7.04;54.26;95535.72;5024539;28;20051;-66
2021/10/15 09:01:28;;;;;;;;;;;;;;;7.57;53.13;95541.72;5022710;28;19936;-66
2021/10/15 09:04:02;;;;;;;;;;;;;;;7.89;52.09;95542.81;5023665;28;20276;-66
2021/10/15 09:06:27;;;;;;;;;;;;;;;7.41;52.80;95537.19;5023063;28;19931;-66
2021/10/15 09:08:54;;;;;;;;;;;;;;;7.44;53.28;95536.06;5022267;28;19925;-66
2021/10/15 09:11:26;;;;;;;;;;;;;;;7.62;52.63;95541.25;5024290;28;19975;-66
2021/10/15 09:13:53;;;;;;;;;;;;;;;7.88;52.35;95543.81;5022434;28;19948;-66
2021/10/15 09:16:18;;;;;;;;;;;;;;;8.01;51.98;95530.09;5021749;28;19921;-67
2021/10/15 09:18:45;;;;;;;;;;;;;;;6.97;54.74;95533.69;5023333;28;20216;-66
2021/10/15 09:21:17;;;;;;;;;;;;;;;7.42;54.98;95536.22;5023667;28;20325;-66
2021/10/15 09:23:48;;;;;;;;;;;;;;;8.33;52.72;95530.25;5023896;28;19971;-65
2021/10/15 09:26:14;;;;;;;;;;;;;;;8.03;52.73;95533.41;5022988;28;19932;-66
2021/10/15 09:28:40;;;;;;;;;;;;;;;8.69;51.51;95527.28;5023583;28;19929;-67
2021/10/15 09:31:05;;;;;;;;;;;;;;;8.90;49.78;95538.31;5023057;28;19920;-67
2021/10/15 09:33:31;;;;;;;;;;;;;;;8.71;50.34;95542.19;5022106;28;19991;-67
2021/10/15 09:36:03;;;;;;;;;;;;;;;8.57;51.51;95545.34;5020974;28;19931;-68
2021/10/15 09:38:28;;;;;;;;;;;;;;;7.96;53.11;95547.47;5025450;28;20287;-67
2021/10/15 09:40:53;;;;;;;;;;;;;;;8.32;52.53;95552.50;5023589;28;19925;-67
2021/10/15 09:43:19;;;;;;;;;;;;;;;8.93;51.09;95538.00;5025766;28;20378;-67
2021/10/15 09:45:45;;;;;;;;;;;;;;;8.49;52.45;95540.06;5026333;28;19921;-67
2021/10/15 09:48:17;;;;;;;;;;;;;;;8.91;50.94;95543.47;5025981;28;20179;-66
2021/10/15 09:50:43;;;;;;;;;;;;;;;8.38;51.90;95549.19;5027077;28;19921;-66
2021/10/15 09:53:08;;;;;;;;;;;;;;;8.78;51.72;95541.34;5026974;28;20533;-67
2021/10/15 09:55:34;;;;;;;;;;;;;;;8.66;52.07;95542.69;5026533;28;20401;-67
2021/10/15 09:58:08;;;;;;;;;;;;;;;8.70;52.42;95546.66;5027229;28;19924;-67
2021/10/15 10:00:34;;;;;;;;;;;;;;;8.91;51.15;95547.97;5027282;28;19952;-66
2021/10/15 10:03:00;;;;;;;;;;;;;;;8.92;51.50;95557.59;5027089;28;19972;-67
2021/10/15 10:05:25;;;;;;;;;;;;;;;8.46;51.88;95555.50;5026827;28;20331;-67
2021/10/15 10:07:51;;;;;;;;;;;;;;;8.87;50.77;95555.44;5026485;28;20408;-67
2021/10/15 10:10:17;;;;;;;;;;;;;;;7.74;53.36;95547.06;5027569;28;20430;-67
2021/10/15 10:12:43;;;;;;;;;;;;;;;7.93;54.18;95538.03;5026943;28;20209;-67
2021/10/15 10:15:09;;;;;;;;;;;;;;;8.86;51.30;95545.81;5022345;28;20402;-67
2021/10/15 10:17:37;;;;;;;;;;;;;;;8.78;51.59;95548.50;5026468;28;20012;-67
2021/10/15 10:20:07;;;;;;;;;;;;;;;9.08;50.52;95554.13;5024727;28;20345;-67
2021/10/15 10:22:32;;;;;;;;;;;;;;;8.75;51.41;95551.47;5026888;28;19932;-67
2021/10/15 10:24:58;;;;;;;;;;;;;;;8.31;52.31;95558.78;5023565;28;19920;-67
2021/10/15 10:27:27;;;;;;;;;;;;;;;7.95;53.14;95553.78;5026504;28;19917;-67
2021/10/15 10:29:54;;;;;;;;;;;;;;;8.20;53.70;95562.59;5025306;28;19932;-67
2021/10/15 10:32:20;;;;;;;;;;;;;;;7.61;54.05;95566.91;5025161;28;19925;-67
2021/10/15 10:34:45;;;;;;;;;;;;;;;8.23;52.41;95572.88;5025956;28;19944;-66
2021/10/15 10:37:11;;;;;;;;;;;;;;;8.33;53.58;95566.59;5028234;28;20370;-67
2021/10/15 10:39:37;;;;;;;;;;;;;;;8.62;52.47;95560.78;5028251;28;19921;-67
2021/10/15 10:42:04;;;;;;;;;;;;;;;8.77;52.84;95563.56;5030083;28;19921;-67
2021/10/15 10:44:29;;;;;;;;;;;;;;;7.60;54.48;95564.41;5030146;28;19974;-67
2021/10/15 10:47:11;;;;;;;;;;;;;;;8.74;51.97;95571.06;5028398;28;20370;-66
2021/10/15 10:49:37;;;;;;;;;;;;;;;8.72;53.07;95565.06;5021688;28;19951;-66
2021/10/15 10:52:15;;;;;;;;;;;;;;;7.62;55.22;95575.69;5029495;28;20373;-67
2021/10/15 10:54:41;;;;;;;;;;;;;;;8.38;53.63;95572.22;5025621;28;20402;-66
2021/10/15 10:57:13;;;;;;;;;;;;;;;9.13;52.02;95573.00;5028030;28;19966;-66
2021/10/15 10:59:38;;;;;;;;;;;;;;;8.78;52.46;95567.88;5030129;28;20039;-66
2021/10/15 11:02:10;;;;;;;;;;;;;;;8.42;53.52;95579.69;5029371;28;20384;-66
2021/10/15 11:04:36;;;;;;;;;;;;;;;8.08;54.91;95571.84;5029875;28;20366;-66
2021/10/15 11:07:02;;;;;;;;;;;;;;;7.94;54.11;95568.84;5030394;28;19932;-66
2021/10/15 11:09:28;;;;;;;;;;;;;;;8.55;52.73;95570.41;5030019;28;19928;-66
2021/10/15 11:11:53;;;;;;;;;;;;;;;8.78;52.70;95578.50;5029034;28;19928;-66
2021/10/15 11:14:45;;;;;;;;;;;;;;;8.22;54.44;95571.22;5030092;28;20313;-66
2021/10/15 11:17:10;;;;;;;;;;;;;;;8.48;53.16;95572.91;5019649;28;19976;-66
2021/10/15 11:19:36;;;;;;;;;;;;;;;8.71;53.34;95574.88;5029549;28;19959;-66
2021/10/15 11:22:01;;;;;;;;;;;;;;;9.01;52.46;95569.88;5028082;28;20092;-65
2021/10/15 11:24:26;;;;;;;;;;;;;;;8.50;54.38;95575.38;5029975;28;19917;-66
2021/10/15 11:26:51;;;;;;;;;;;;;;;8.65;53.97;95576.38;5029847;28;19960;-66
2021/10/15 11:29:17;;;;;;;;;;;;;;;8.23;55.95;95585.31;5028968;28;19925;-66
2021/10/15 11:31:51;;;;;;;;;;;;;;;8.50;55.15;95581.50;5030211;28;19924;-66
2021/10/15 11:34:16;;;;;;;;;;;;;;;7.92;57.39;95587.56;5030127;28;19913;-66
2021/10/15 11:36:41;;;;;;;;;;;;;;;7.34;59.75;95589.97;5027028;28;20190;-66
2021/10/15 11:39:07;;;;;;;;;;;;;;;6.81;61.09;95592.66;5028413;28;19936;-65
2021/10/15 11:41:32;;;;;;;;;;;;;;;7.10;60.72;95588.84;5028966;28;20314;-66
2021/10/15 11:43:57;;;;;;;;;;;;;;;6.63;61.67;95590.03;5029362;28;19924;-63
2021/10/15 11:46:25;;;;;;;;;;;;;;;6.77;61.60;95610.66;5028699;28;19921;-64
2021/10/15 11:48:51;;;;;;;;;;;;;;;6.77;62.26;95594.78;5027857;28;19929;-64
2021/10/15 11:51:16;;;;;;;;;;;;;;;6.91;62.30;95604.94;5029407;28;20017;-65
2021/10/15 11:53:42;;;;;;;;;;;;;;;7.08;61.60;95605.91;5027674;28;19957;-65
2021/10/15 11:56:11;;;;;;;;;;;;;;;7.59;59.47;95605.16;5026588;28;20323;-65
2021/10/15 11:58:37;;;;;;;;;;;;;;;7.28;60.74;95612.63;5028940;28;20051;-66
2021/10/15 12:01:07;;;;;;;;;;;;;;;7.09;61.58;95607.53;5028114;28;20028;-66
2021/10/15 12:03:35;;;;;;;;;;;;;;;6.38;62.72;95621.53;5028268;28;20031;-66
2021/10/15 12:06:19;;;;;;;;;;;;;;;6.01;65.17;95625.16;5019000;28;20492;-66
2021/10/15 12:08:45;;;;;;;;;;;;;;;6.30;63.72;95624.13;5024233;28;20236;-63
2021/10/15 12:11:12;;;;;;;;;;;;;;;6.54;62.48;95635.94;5024486;28;19975;-63
2021/10/15 12:13:37;;;;;;;;;;;;;;;6.41;63.42;95625.69;5023969;28;20274;-63
2021/10/15 12:16:15;;;;;;;;;;;;;;;6.57;62.44;95630.34;5023882;28;19929;-62
2021/10/15 12:18:41;;;;;;;;;;;;;;;6.12;63.44;95640.78;5024264;28;20423;-62
2021/10/15 12:21:10;;;;;;;;;;;;;;;6.50;62.48;95630.94;5022729;28;20015;-62
2021/10/15 12:23:51;;;;;;;;;;;;;;;6.61;62.28;95637.81;5024851;28;19917;-62
2021/10/15 12:26:17;;;;;;;;;;;;;;;6.61;62.76;95640.47;5024754;28;20378;-62
2021/10/15 12:28:42;;;;;;;;;;;;;;;7.07;60.64;95628.06;5024066;28;19932;-63
2021/10/15 12:31:21;;;;;;;;;;;;;;;7.23;60.98;95636.09;5024673;28;19921;-62
2021/10/15 12:34:03;;;;;;;;;;;;;;;7.93;59.34;95636.13;5024598;28;20333;-64
2021/10/15 12:36:28;;;;;;;;;;;;;;;7.64;58.90;95626.69;5016115;28;19925;-63
2021/10/15 12:39:13;;;;;;;;;;;;;;;8.36;56.77;95627.28;5026080;28;19936;-64
2021/10/15 12:41:38;;;;;;;;;;;;;;;8.53;56.91;95631.59;5023349;28;19925;-63
2021/10/15 12:44:17;;;;;;;;;;;;;;;8.72;56.38;95631.44;5025021;28;20409;-63
2021/10/15 12:46:52;;;;;;;;;;;;;;;8.17;55.04;95634.53;5024126;28;20130;-63
2021/10/15 12:49:17;;;;;;;;;;;;;;;8.26;56.14;95630.91;5025041;28;19933;-63
2021/10/15 12:51:43;;;;;;;;;;;;;;;7.68;58.15;95628.03;5023972;28;20204;-65
2021/10/15 12:54:08;;;;;;;;;;;;;;;7.72;57.21;95628.56;5021446;28;19921;-64
2021/10/15 12:56:34;;;;;;;;;;;;;;;8.14;56.44;95626.91;5017686;28;19921;-64
2021/10/15 12:58:59;;;;;;;;;;;;;;;8.51;55.95;95630.09;5024180;28;20021;-65
2021/10/15 13:01:28;;;;;;;;;;;;;;;8.50;54.79;95620.50;5022504;28;19921;-65
2021/10/15 13:03:54;;;;;;;;;;;;;;;8.51;55.58;95623.00;5022079;28;19951;-65
2021/10/15 13:06:19;;;;;;;;;;;;;;;9.11;53.78;95611.38;5023834;28;20453;-65
2021/10/15 13:08:45;;;;;;;;;;;;;;;9.31;52.04;95620.63;5023151;28;20037;-64
2021/10/15 13:11:10;;;;;;;;;;;;;;;9.53;52.03;95625.38;5022521;28;19932;-63